sensor_id;sensor_type;location;lat;lon;timestamp;P1;durP1;ratioP1;P2;durP2;ratioP2
76814;SDS011;65768;49.906;19.384;2023-05-10T00:00:04;13.60;;;7.00;;
76814;SDS011;65768;49.906;19.384;2023-05-10T00:43:31;10.70;;;6.70;;
76814;SDS011;65768;49.906;19.384;2023-05-10T01:03:52;14.80;;;7.10;;
76814;SDS011;65768;49.906;19.384;2023-05-10T01:10:21;11.10;;;6.40;;
76814;SDS011;65768;49.906;19.384;2023-05-10T02:15:04;17.40;;;8.50;;
76814;SDS011;65768;49.906;19.384;2023-05-10T03:12:06;18.20;;;10.00;;
76814;SDS011;65768;49.906;19.384;2023-05-10T03:25:59;16.60;;;9.70;;
76814;SDS011;65768;49.906;19.384;2023-05-10T03:32:42;19.60;;;12.30;;
76814;SDS011;65768;49.906;19.384;2023-05-10T03:42:03;17.60;;;10.10;;
76814;SDS011;65768;49.906;19.384;2023-05-10T03:58:27;17.10;;;11.00;;
76814;SDS011;65768;49.906;19.384;2023-05-10T04:11:30;19.30;;;11.00;;
76814;SDS011;65768;49.906;19.384;2023-05-10T04:21:17;15.10;;;9.80;;
76814;SDS011;65768;49.906;19.384;2023-05-10T04:44:54;8.70;;;5.20;;
76814;SDS011;65768;49.906;19.384;2023-05-10T04:57:58;10.20;;;5.10;;
76814;SDS011;65768;49.906;19.384;2023-05-10T05:01:13;11.90;;;6.10;;
76814;SDS011;65768;49.906;19.384;2023-05-10T05:04:29;10.10;;;6.30;;
76814;SDS011;65768;49.906;19.384;2023-05-10T05:17:40;6.00;;;4.20;;
76814;SDS011;65768;49.906;19.384;2023-05-10T05:29:54;5.50;;;3.40;;
76814;SDS011;65768;49.906;19.384;2023-05-10T05:32:54;9.70;;;3.60;;
76814;SDS011;65768;49.906;19.384;2023-05-10T05:38:36;6.80;;;3.50;;
76814;SDS011;65768;49.906;19.384;2023-05-10T05:44:36;8.30;;;3.40;;
76814;SDS011;65768;49.906;19.384;2023-05-10T05:50:43;10.00;;;3.80;;
76814;SDS011;65768;49.906;19.384;2023-05-10T05:56:04;9.00;;;4.00;;
76814;SDS011;65768;49.906;19.384;2023-05-10T05:58:40;7.70;;;3.40;;
76814;SDS011;65768;49.906;19.384;2023-05-10T06:04:06;6.40;;;3.50;;
76814;SDS011;65768;49.906;19.384;2023-05-10T06:06:37;12.40;;;3.70;;
76814;SDS011;65768;49.906;19.384;2023-05-10T06:09:27;7.00;;;4.10;;
76814;SDS011;65768;49.906;19.384;2023-05-10T06:12:00;6.20;;;3.10;;
76814;SDS011;65768;49.906;19.384;2023-05-10T06:14:49;6.30;;;3.60;;
76814;SDS011;65768;49.906;19.384;2023-05-10T06:17:21;7.80;;;3.40;;
76814;SDS011;65768;49.906;19.384;2023-05-10T06:19:57;4.60;;;3.10;;
76814;SDS011;65768;49.906;19.384;2023-05-10T06:22:34;6.00;;;3.50;;
76814;SDS011;65768;49.906;19.384;2023-05-10T06:25:08;5.20;;;2.70;;
76814;SDS011;65768;49.906;19.384;2023-05-10T06:27:49;6.00;;;3.10;;
76814;SDS011;65768;49.906;19.384;2023-05-10T06:30:29;4.20;;;2.30;;
76814;SDS011;65768;49.906;19.384;2023-05-10T06:32:59;7.00;;;2.70;;
76814;SDS011;65768;49.906;19.384;2023-05-10T06:35:38;4.60;;;2.20;;
76814;SDS011;65768;49.906;19.384;2023-05-10T06:38:14;5.10;;;2.90;;
76814;SDS011;65768;49.906;19.384;2023-05-10T06:40:46;9.70;;;3.40;;
76814;SDS011;65768;49.906;19.384;2023-05-10T06:43:29;4.80;;;2.50;;
76814;SDS011;65768;49.906;19.384;2023-05-10T06:45:58;3.50;;;2.20;;
76814;SDS011;65768;49.906;19.384;2023-05-10T06:48:26;4.30;;;2.00;;
76814;SDS011;65768;49.906;19.384;2023-05-10T06:50:58;5.10;;;2.20;;
76814;SDS011;65768;49.906;19.384;2023-05-10T06:53:26;4.40;;;2.50;;
76814;SDS011;65768;49.906;19.384;2023-05-10T06:55:57;3.20;;;2.10;;
76814;SDS011;65768;49.906;19.384;2023-05-10T06:58:32;4.20;;;2.60;;
76814;SDS011;65768;49.906;19.384;2023-05-10T07:01:03;3.90;;;2.20;;
76814;SDS011;65768;49.906;19.384;2023-05-10T07:03:35;3.90;;;2.30;;
76814;SDS011;65768;49.906;19.384;2023-05-10T07:06:04;5.70;;;2.00;;
76814;SDS011;65768;49.906;19.384;2023-05-10T07:08:34;4.30;;;2.30;;
76814;SDS011;65768;49.906;19.384;2023-05-10T07:11:03;6.10;;;2.40;;
76814;SDS011;65768;49.906;19.384;2023-05-10T07:13:34;3.10;;;2.10;;
76814;SDS011;65768;49.906;19.384;2023-05-10T07:16:03;3.00;;;2.10;;
76814;SDS011;65768;49.906;19.384;2023-05-10T07:18:33;3.10;;;1.70;;
76814;SDS011;65768;49.906;19.384;2023-05-10T07:21:02;5.60;;;2.70;;
76814;SDS011;65768;49.906;19.384;2023-05-10T07:23:30;5.40;;;2.60;;
76814;SDS011;65768;49.906;19.384;2023-05-10T07:25:59;5.60;;;2.60;;
76814;SDS011;65768;49.906;19.384;2023-05-10T07:28:28;7.50;;;2.60;;
76814;SDS011;65768;49.906;19.384;2023-05-10T07:30:56;5.30;;;2.30;;
76814;SDS011;65768;49.906;19.384;2023-05-10T07:33:27;8.30;;;3.10;;
76814;SDS011;65768;49.906;19.384;2023-05-10T07:35:55;4.30;;;2.70;;
76814;SDS011;65768;49.906;19.384;2023-05-10T07:38:24;5.10;;;2.40;;
76814;SDS011;65768;49.906;19.384;2023-05-10T07:40:52;6.10;;;2.70;;
76814;SDS011;65768;49.906;19.384;2023-05-10T07:43:20;5.40;;;2.70;;
76814;SDS011;65768;49.906;19.384;2023-05-10T07:45:48;3.40;;;2.20;;
76814;SDS011;65768;49.906;19.384;2023-05-10T07:48:17;5.70;;;2.30;;
76814;SDS011;65768;49.906;19.384;2023-05-10T07:50:45;4.30;;;2.90;;
76814;SDS011;65768;49.906;19.384;2023-05-10T07:53:13;4.20;;;2.30;;
76814;SDS011;65768;49.906;19.384;2023-05-10T07:55:41;4.20;;;2.00;;
76814;SDS011;65768;49.906;19.384;2023-05-10T07:58:09;5.10;;;2.40;;
76814;SDS011;65768;49.906;19.384;2023-05-10T08:00:38;5.30;;;3.30;;
76814;SDS011;65768;49.906;19.384;2023-05-10T08:03:07;8.40;;;3.20;;
76814;SDS011;65768;49.906;19.384;2023-05-10T08:05:36;5.10;;;2.80;;
76814;SDS011;65768;49.906;19.384;2023-05-10T08:08:04;4.50;;;2.30;;
76814;SDS011;65768;49.906;19.384;2023-05-10T08:10:32;7.90;;;3.20;;
76814;SDS011;65768;49.906;19.384;2023-05-10T08:13:00;3.10;;;2.20;;
76814;SDS011;65768;49.906;19.384;2023-05-10T08:15:29;4.30;;;2.70;;
76814;SDS011;65768;49.906;19.384;2023-05-10T08:17:57;6.20;;;3.10;;
76814;SDS011;65768;49.906;19.384;2023-05-10T08:20:25;4.20;;;3.00;;
76814;SDS011;65768;49.906;19.384;2023-05-10T08:22:54;4.20;;;1.90;;
76814;SDS011;65768;49.906;19.384;2023-05-10T08:25:23;5.40;;;3.00;;
76814;SDS011;65768;49.906;19.384;2023-05-10T08:27:51;3.40;;;2.00;;
76814;SDS011;65768;49.906;19.384;2023-05-10T08:30:20;2.90;;;1.80;;
76814;SDS011;65768;49.906;19.384;2023-05-10T08:32:48;2.70;;;1.90;;
76814;SDS011;65768;49.906;19.384;2023-05-10T08:35:16;6.80;;;2.70;;
76814;SDS011;65768;49.906;19.384;2023-05-10T08:37:44;4.30;;;2.60;;
76814;SDS011;65768;49.906;19.384;2023-05-10T08:40:13;5.00;;;2.10;;
76814;SDS011;65768;49.906;19.384;2023-05-10T08:42:43;3.40;;;2.10;;
76814;SDS011;65768;49.906;19.384;2023-05-10T08:45:17;3.70;;;2.00;;
76814;SDS011;65768;49.906;19.384;2023-05-10T08:47:47;3.70;;;2.20;;
76814;SDS011;65768;49.906;19.384;2023-05-10T08:50:16;6.40;;;3.40;;
76814;SDS011;65768;49.906;19.384;2023-05-10T08:52:47;3.60;;;2.20;;
76814;SDS011;65768;49.906;19.384;2023-05-10T08:57:48;6.20;;;2.20;;
76814;SDS011;65768;49.906;19.384;2023-05-10T09:00:16;5.70;;;3.00;;
76814;SDS011;65768;49.906;19.384;2023-05-10T09:02:46;6.50;;;2.60;;
76814;SDS011;65768;49.906;19.384;2023-05-10T09:05:15;4.90;;;2.50;;
76814;SDS011;65768;49.906;19.384;2023-05-10T09:07:45;3.10;;;2.30;;
76814;SDS011;65768;49.906;19.384;2023-05-10T09:10:13;3.80;;;2.00;;
76814;SDS011;65768;49.906;19.384;2023-05-10T09:12:43;3.40;;;1.90;;
76814;SDS011;65768;49.906;19.384;2023-05-10T09:15:14;4.40;;;2.30;;
76814;SDS011;65768;49.906;19.384;2023-05-10T09:17:44;4.10;;;1.70;;
76814;SDS011;65768;49.906;19.384;2023-05-10T09:20:14;4.40;;;1.90;;
76814;SDS011;65768;49.906;19.384;2023-05-10T09:22:42;3.30;;;1.90;;
76814;SDS011;65768;49.906;19.384;2023-05-10T09:25:11;3.80;;;1.90;;
76814;SDS011;65768;49.906;19.384;2023-05-10T09:27:43;3.00;;;1.70;;
76814;SDS011;65768;49.906;19.384;2023-05-10T09:30:16;3.30;;;1.80;;
76814;SDS011;65768;49.906;19.384;2023-05-10T09:32:50;2.70;;;1.40;;
76814;SDS011;65768;49.906;19.384;2023-05-10T09:35:20;9.30;;;2.40;;
76814;SDS011;65768;49.906;19.384;2023-05-10T09:37:51;2.70;;;1.70;;
76814;SDS011;65768;49.906;19.384;2023-05-10T09:40:24;3.10;;;1.60;;
76814;SDS011;65768;49.906;19.384;2023-05-10T09:43:03;2.80;;;1.60;;
76814;SDS011;65768;49.906;19.384;2023-05-10T09:45:35;6.50;;;1.80;;
76814;SDS011;65768;49.906;19.384;2023-05-10T09:48:03;3.00;;;1.50;;
76814;SDS011;65768;49.906;19.384;2023-05-10T09:50:32;5.10;;;2.00;;
76814;SDS011;65768;49.906;19.384;2023-05-10T09:53:02;2.20;;;1.40;;
76814;SDS011;65768;49.906;19.384;2023-05-10T09:55:41;4.10;;;1.40;;
76814;SDS011;65768;49.906;19.384;2023-05-10T09:58:13;5.90;;;2.10;;
76814;SDS011;65768;49.906;19.384;2023-05-10T10:00:43;2.90;;;1.90;;
76814;SDS011;65768;49.906;19.384;2023-05-10T10:03:13;2.50;;;1.60;;
76814;SDS011;65768;49.906;19.384;2023-05-10T10:05:43;3.70;;;1.60;;
76814;SDS011;65768;49.906;19.384;2023-05-10T10:08:12;2.30;;;1.40;;
76814;SDS011;65768;49.906;19.384;2023-05-10T10:10:41;3.40;;;1.30;;
76814;SDS011;65768;49.906;19.384;2023-05-10T10:13:12;2.40;;;1.80;;
76814;SDS011;65768;49.906;19.384;2023-05-10T10:15:40;2.80;;;1.60;;
76814;SDS011;65768;49.906;19.384;2023-05-10T10:18:13;3.20;;;1.60;;
76814;SDS011;65768;49.906;19.384;2023-05-10T10:20:42;2.10;;;1.30;;
76814;SDS011;65768;49.906;19.384;2023-05-10T10:23:11;4.80;;;1.30;;
76814;SDS011;65768;49.906;19.384;2023-05-10T10:25:39;3.40;;;1.40;;
76814;SDS011;65768;49.906;19.384;2023-05-10T10:31:24;2.60;;;1.70;;
76814;SDS011;65768;49.906;19.384;2023-05-10T10:34:08;4.20;;;1.50;;
76814;SDS011;65768;49.906;19.384;2023-05-10T10:36:45;3.20;;;1.40;;
76814;SDS011;65768;49.906;19.384;2023-05-10T10:39:15;2.30;;;1.40;;
76814;SDS011;65768;49.906;19.384;2023-05-10T10:44:22;2.90;;;1.20;;
76814;SDS011;65768;49.906;19.384;2023-05-10T10:52:33;4.00;;;2.00;;
76814;SDS011;65768;49.906;19.384;2023-05-10T10:55:03;3.10;;;1.40;;
76814;SDS011;65768;49.906;19.384;2023-05-10T10:57:42;1.80;;;1.30;;
76814;SDS011;65768;49.906;19.384;2023-05-10T11:00:21;3.60;;;1.40;;
76814;SDS011;65768;49.906;19.384;2023-05-10T11:02:52;5.60;;;2.20;;
76814;SDS011;65768;49.906;19.384;2023-05-10T11:07:54;2.30;;;1.50;;
76814;SDS011;65768;49.906;19.384;2023-05-10T11:10:24;4.60;;;1.90;;
76814;SDS011;65768;49.906;19.384;2023-05-10T11:13:08;4.20;;;2.30;;
76814;SDS011;65768;49.906;19.384;2023-05-10T11:15:38;3.70;;;1.50;;
76814;SDS011;65768;49.906;19.384;2023-05-10T11:20:52;4.70;;;1.50;;
76814;SDS011;65768;49.906;19.384;2023-05-10T11:23:28;3.60;;;1.70;;
76814;SDS011;65768;49.906;19.384;2023-05-10T11:25:58;3.10;;;1.30;;
76814;SDS011;65768;49.906;19.384;2023-05-10T11:28:28;4.20;;;1.60;;
76814;SDS011;65768;49.906;19.384;2023-05-10T11:30:57;2.20;;;1.40;;
76814;SDS011;65768;49.906;19.384;2023-05-10T11:33:25;2.50;;;1.20;;
76814;SDS011;65768;49.906;19.384;2023-05-10T11:35:53;3.30;;;1.30;;
76814;SDS011;65768;49.906;19.384;2023-05-10T11:38:21;2.90;;;1.40;;
76814;SDS011;65768;49.906;19.384;2023-05-10T11:40:50;3.10;;;1.60;;
76814;SDS011;65768;49.906;19.384;2023-05-10T11:43:23;2.60;;;1.30;;
76814;SDS011;65768;49.906;19.384;2023-05-10T11:45:55;2.20;;;1.60;;
76814;SDS011;65768;49.906;19.384;2023-05-10T11:48:24;3.10;;;1.50;;
76814;SDS011;65768;49.906;19.384;2023-05-10T11:50:52;2.80;;;1.30;;
76814;SDS011;65768;49.906;19.384;2023-05-10T11:53:27;4.00;;;2.30;;
76814;SDS011;65768;49.906;19.384;2023-05-10T11:58:36;3.30;;;1.80;;
76814;SDS011;65768;49.906;19.384;2023-05-10T12:01:06;2.30;;;1.60;;
76814;SDS011;65768;49.906;19.384;2023-05-10T12:03:37;3.60;;;2.10;;
76814;SDS011;65768;49.906;19.384;2023-05-10T12:06:06;3.30;;;1.70;;
76814;SDS011;65768;49.906;19.384;2023-05-10T12:08:35;2.80;;;1.80;;
76814;SDS011;65768;49.906;19.384;2023-05-10T12:11:04;3.30;;;2.00;;
76814;SDS011;65768;49.906;19.384;2023-05-10T12:13:39;3.10;;;1.90;;
76814;SDS011;65768;49.906;19.384;2023-05-10T12:16:18;3.20;;;2.00;;
76814;SDS011;65768;49.906;19.384;2023-05-10T12:18:48;2.50;;;1.40;;
76814;SDS011;65768;49.906;19.384;2023-05-10T12:21:20;2.40;;;1.40;;
76814;SDS011;65768;49.906;19.384;2023-05-10T12:23:53;3.80;;;1.60;;
76814;SDS011;65768;49.906;19.384;2023-05-10T12:26:23;1.70;;;1.20;;
76814;SDS011;65768;49.906;19.384;2023-05-10T12:28:54;3.00;;;1.30;;
76814;SDS011;65768;49.906;19.384;2023-05-10T12:31:22;3.20;;;1.40;;
76814;SDS011;65768;49.906;19.384;2023-05-10T12:33:50;2.60;;;1.70;;
76814;SDS011;65768;49.906;19.384;2023-05-10T12:36:22;2.40;;;1.10;;
76814;SDS011;65768;49.906;19.384;2023-05-10T12:39:01;3.20;;;1.60;;
76814;SDS011;65768;49.906;19.384;2023-05-10T12:41:31;2.80;;;1.70;;
76814;SDS011;65768;49.906;19.384;2023-05-10T12:44:01;3.50;;;1.70;;
76814;SDS011;65768;49.906;19.384;2023-05-10T12:46:29;2.90;;;1.60;;
76814;SDS011;65768;49.906;19.384;2023-05-10T12:48:58;2.50;;;1.30;;
76814;SDS011;65768;49.906;19.384;2023-05-10T12:51:26;1.80;;;1.10;;
76814;SDS011;65768;49.906;19.384;2023-05-10T12:53:55;3.00;;;1.50;;
76814;SDS011;65768;49.906;19.384;2023-05-10T12:56:23;3.10;;;1.50;;
76814;SDS011;65768;49.906;19.384;2023-05-10T12:58:51;4.40;;;2.00;;
76814;SDS011;65768;49.906;19.384;2023-05-10T13:01:19;1.80;;;1.20;;
76814;SDS011;65768;49.906;19.384;2023-05-10T13:03:47;3.20;;;1.80;;
76814;SDS011;65768;49.906;19.384;2023-05-10T13:06:15;2.90;;;1.70;;
76814;SDS011;65768;49.906;19.384;2023-05-10T13:08:43;3.90;;;1.60;;
76814;SDS011;65768;49.906;19.384;2023-05-10T13:11:12;3.40;;;1.50;;
76814;SDS011;65768;49.906;19.384;2023-05-10T13:13:44;3.80;;;1.90;;
76814;SDS011;65768;49.906;19.384;2023-05-10T13:16:12;2.40;;;1.40;;
76814;SDS011;65768;49.906;19.384;2023-05-10T13:18:40;3.40;;;1.60;;
76814;SDS011;65768;49.906;19.384;2023-05-10T13:21:08;2.40;;;1.80;;
76814;SDS011;65768;49.906;19.384;2023-05-10T13:23:36;3.50;;;1.80;;
76814;SDS011;65768;49.906;19.384;2023-05-10T13:26:04;4.00;;;1.90;;
76814;SDS011;65768;49.906;19.384;2023-05-10T13:28:32;2.80;;;1.80;;
76814;SDS011;65768;49.906;19.384;2023-05-10T13:31:00;3.30;;;1.40;;
76814;SDS011;65768;49.906;19.384;2023-05-10T13:33:29;2.50;;;1.50;;
76814;SDS011;65768;49.906;19.384;2023-05-10T13:35:57;3.50;;;2.00;;
76814;SDS011;65768;49.906;19.384;2023-05-10T13:38:25;3.00;;;1.40;;
76814;SDS011;65768;49.906;19.384;2023-05-10T13:40:53;4.50;;;1.90;;
76814;SDS011;65768;49.906;19.384;2023-05-10T13:43:22;4.60;;;3.40;;
76814;SDS011;65768;49.906;19.384;2023-05-10T13:45:50;3.10;;;2.10;;
76814;SDS011;65768;49.906;19.384;2023-05-10T13:48:19;3.60;;;2.80;;
76814;SDS011;65768;49.906;19.384;2023-05-10T13:50:48;15.30;;;9.50;;
76814;SDS011;65768;49.906;19.384;2023-05-10T13:53:17;44.40;;;28.80;;
76814;SDS011;65768;49.906;19.384;2023-05-10T13:55:45;19.50;;;13.50;;
76814;SDS011;65768;49.906;19.384;2023-05-10T13:58:14;13.80;;;9.00;;
76814;SDS011;65768;49.906;19.384;2023-05-10T14:00:42;6.30;;;4.10;;
76814;SDS011;65768;49.906;19.384;2023-05-10T14:03:10;4.10;;;3.60;;
76814;SDS011;65768;49.906;19.384;2023-05-10T14:05:38;4.00;;;2.30;;
76814;SDS011;65768;49.906;19.384;2023-05-10T14:08:06;3.90;;;1.90;;
76814;SDS011;65768;49.906;19.384;2023-05-10T14:10:37;2.80;;;1.60;;
76814;SDS011;65768;49.906;19.384;2023-05-10T14:13:05;2.90;;;1.90;;
76814;SDS011;65768;49.906;19.384;2023-05-10T14:15:34;3.90;;;2.10;;
76814;SDS011;65768;49.906;19.384;2023-05-10T14:18:02;3.30;;;1.80;;
76814;SDS011;65768;49.906;19.384;2023-05-10T14:20:30;2.30;;;1.60;;
76814;SDS011;65768;49.906;19.384;2023-05-10T14:22:59;5.20;;;1.80;;
76814;SDS011;65768;49.906;19.384;2023-05-10T14:25:28;2.40;;;1.60;;
76814;SDS011;65768;49.906;19.384;2023-05-10T14:27:56;3.40;;;1.70;;
76814;SDS011;65768;49.906;19.384;2023-05-10T14:30:24;3.60;;;1.60;;
76814;SDS011;65768;49.906;19.384;2023-05-10T14:32:53;5.00;;;1.20;;
76814;SDS011;65768;49.906;19.384;2023-05-10T14:35:21;2.30;;;1.60;;
76814;SDS011;65768;49.906;19.384;2023-05-10T14:37:49;13.90;;;8.50;;
76814;SDS011;65768;49.906;19.384;2023-05-10T14:40:17;13.80;;;9.00;;
76814;SDS011;65768;49.906;19.384;2023-05-10T14:42:46;9.70;;;7.10;;
76814;SDS011;65768;49.906;19.384;2023-05-10T14:45:14;5.90;;;2.70;;
76814;SDS011;65768;49.906;19.384;2023-05-10T14:47:42;3.40;;;2.70;;
76814;SDS011;65768;49.906;19.384;2023-05-10T14:50:10;3.00;;;1.80;;
76814;SDS011;65768;49.906;19.384;2023-05-10T14:52:38;3.40;;;1.70;;
76814;SDS011;65768;49.906;19.384;2023-05-10T14:55:07;4.20;;;1.80;;
76814;SDS011;65768;49.906;19.384;2023-05-10T14:57:35;2.80;;;1.50;;
76814;SDS011;65768;49.906;19.384;2023-05-10T15:00:04;2.60;;;1.90;;
76814;SDS011;65768;49.906;19.384;2023-05-10T15:02:33;2.50;;;1.80;;
76814;SDS011;65768;49.906;19.384;2023-05-10T15:05:01;4.10;;;2.00;;
76814;SDS011;65768;49.906;19.384;2023-05-10T15:07:29;4.70;;;2.20;;
76814;SDS011;65768;49.906;19.384;2023-05-10T15:09:59;3.60;;;1.60;;
76814;SDS011;65768;49.906;19.384;2023-05-10T15:12:27;3.80;;;1.90;;
76814;SDS011;65768;49.906;19.384;2023-05-10T15:14:55;3.60;;;1.70;;
76814;SDS011;65768;49.906;19.384;2023-05-10T15:17:24;3.10;;;1.70;;
76814;SDS011;65768;49.906;19.384;2023-05-10T15:19:52;3.90;;;1.80;;
76814;SDS011;65768;49.906;19.384;2023-05-10T15:22:21;3.70;;;1.90;;
76814;SDS011;65768;49.906;19.384;2023-05-10T15:24:49;4.80;;;2.40;;
76814;SDS011;65768;49.906;19.384;2023-05-10T15:27:17;3.70;;;1.80;;
76814;SDS011;65768;49.906;19.384;2023-05-10T15:29:46;3.10;;;1.70;;
76814;SDS011;65768;49.906;19.384;2023-05-10T15:32:17;2.90;;;1.80;;
76814;SDS011;65768;49.906;19.384;2023-05-10T15:34:45;3.40;;;1.90;;
76814;SDS011;65768;49.906;19.384;2023-05-10T15:37:13;2.90;;;1.60;;
76814;SDS011;65768;49.906;19.384;2023-05-10T15:39:42;5.90;;;2.10;;
76814;SDS011;65768;49.906;19.384;2023-05-10T15:42:10;3.30;;;2.00;;
76814;SDS011;65768;49.906;19.384;2023-05-10T15:44:38;5.20;;;2.80;;
76814;SDS011;65768;49.906;19.384;2023-05-10T15:47:06;6.00;;;2.60;;
76814;SDS011;65768;49.906;19.384;2023-05-10T15:49:34;5.00;;;2.30;;
76814;SDS011;65768;49.906;19.384;2023-05-10T15:52:02;5.10;;;2.60;;
76814;SDS011;65768;49.906;19.384;2023-05-10T15:54:30;4.30;;;2.40;;
76814;SDS011;65768;49.906;19.384;2023-05-10T15:56:58;4.30;;;1.90;;
76814;SDS011;65768;49.906;19.384;2023-05-10T15:59:27;2.40;;;1.80;;
76814;SDS011;65768;49.906;19.384;2023-05-10T16:01:56;3.70;;;1.80;;
76814;SDS011;65768;49.906;19.384;2023-05-10T16:04:24;6.80;;;2.30;;
76814;SDS011;65768;49.906;19.384;2023-05-10T16:06:52;7.50;;;2.80;;
76814;SDS011;65768;49.906;19.384;2023-05-10T16:09:20;3.00;;;2.00;;
76814;SDS011;65768;49.906;19.384;2023-05-10T16:11:49;4.70;;;2.50;;
76814;SDS011;65768;49.906;19.384;2023-05-10T16:14:20;4.20;;;2.50;;
76814;SDS011;65768;49.906;19.384;2023-05-10T16:16:49;2.90;;;1.60;;
76814;SDS011;65768;49.906;19.384;2023-05-10T16:19:18;7.90;;;2.40;;
76814;SDS011;65768;49.906;19.384;2023-05-10T16:21:46;4.60;;;2.10;;
76814;SDS011;65768;49.906;19.384;2023-05-10T16:24:14;5.20;;;2.70;;
76814;SDS011;65768;49.906;19.384;2023-05-10T16:26:42;7.80;;;2.80;;
76814;SDS011;65768;49.906;19.384;2023-05-10T16:29:10;8.90;;;2.70;;
76814;SDS011;65768;49.906;19.384;2023-05-10T16:31:39;11.20;;;3.00;;
76814;SDS011;65768;49.906;19.384;2023-05-10T16:34:07;7.10;;;3.40;;
76814;SDS011;65768;49.906;19.384;2023-05-10T16:36:35;10.80;;;4.60;;
76814;SDS011;65768;49.906;19.384;2023-05-10T16:39:04;14.40;;;6.50;;
76814;SDS011;65768;49.906;19.384;2023-05-10T16:41:32;5.40;;;2.90;;
76814;SDS011;65768;49.906;19.384;2023-05-10T16:44:01;5.00;;;2.60;;
76814;SDS011;65768;49.906;19.384;2023-05-10T16:46:30;5.40;;;1.90;;
76814;SDS011;65768;49.906;19.384;2023-05-10T16:48:59;5.50;;;2.30;;
76814;SDS011;65768;49.906;19.384;2023-05-10T16:51:28;3.20;;;2.00;;
76814;SDS011;65768;49.906;19.384;2023-05-10T16:53:56;3.50;;;1.90;;
76814;SDS011;65768;49.906;19.384;2023-05-10T16:56:24;3.80;;;2.30;;
76814;SDS011;65768;49.906;19.384;2023-05-10T16:58:53;4.90;;;2.70;;
76814;SDS011;65768;49.906;19.384;2023-05-10T17:01:21;4.60;;;2.90;;
76814;SDS011;65768;49.906;19.384;2023-05-10T17:03:50;6.90;;;2.50;;
76814;SDS011;65768;49.906;19.384;2023-05-10T17:06:18;15.20;;;4.70;;
76814;SDS011;65768;49.906;19.384;2023-05-10T17:08:47;10.50;;;3.40;;
76814;SDS011;65768;49.906;19.384;2023-05-10T17:11:19;6.40;;;3.00;;
76814;SDS011;65768;49.906;19.384;2023-05-10T17:13:48;7.80;;;3.00;;
76814;SDS011;65768;49.906;19.384;2023-05-10T17:16:18;5.00;;;3.00;;
76814;SDS011;65768;49.906;19.384;2023-05-10T17:18:48;5.40;;;3.20;;
76814;SDS011;65768;49.906;19.384;2023-05-10T17:21:16;7.10;;;3.10;;
76814;SDS011;65768;49.906;19.384;2023-05-10T17:23:46;5.80;;;3.00;;
76814;SDS011;65768;49.906;19.384;2023-05-10T17:26:14;4.20;;;2.30;;
76814;SDS011;65768;49.906;19.384;2023-05-10T17:28:44;4.40;;;2.60;;
76814;SDS011;65768;49.906;19.384;2023-05-10T17:31:12;3.90;;;2.30;;
76814;SDS011;65768;49.906;19.384;2023-05-10T17:33:40;4.90;;;2.90;;
76814;SDS011;65768;49.906;19.384;2023-05-10T17:36:09;7.70;;;2.20;;
76814;SDS011;65768;49.906;19.384;2023-05-10T17:38:37;5.80;;;2.30;;
76814;SDS011;65768;49.906;19.384;2023-05-10T17:41:06;3.60;;;2.30;;
76814;SDS011;65768;49.906;19.384;2023-05-10T17:43:35;4.70;;;2.20;;
76814;SDS011;65768;49.906;19.384;2023-05-10T17:46:06;6.50;;;2.70;;
76814;SDS011;65768;49.906;19.384;2023-05-10T17:48:38;4.00;;;2.30;;
76814;SDS011;65768;49.906;19.384;2023-05-10T17:51:12;16.90;;;8.70;;
76814;SDS011;65768;49.906;19.384;2023-05-10T17:53:45;10.40;;;5.50;;
76814;SDS011;65768;49.906;19.384;2023-05-10T17:56:13;9.20;;;5.10;;
76814;SDS011;65768;49.906;19.384;2023-05-10T17:58:42;7.90;;;3.80;;
76814;SDS011;65768;49.906;19.384;2023-05-10T18:01:11;5.10;;;3.40;;
76814;SDS011;65768;49.906;19.384;2023-05-10T18:03:47;5.40;;;3.30;;
76814;SDS011;65768;49.906;19.384;2023-05-10T18:06:22;6.70;;;3.30;;
76814;SDS011;65768;49.906;19.384;2023-05-10T18:08:57;6.20;;;3.90;;
76814;SDS011;65768;49.906;19.384;2023-05-10T18:11:34;6.50;;;3.90;;
76814;SDS011;65768;49.906;19.384;2023-05-10T18:14:06;7.50;;;4.00;;
76814;SDS011;65768;49.906;19.384;2023-05-10T18:16:40;7.10;;;3.90;;
76814;SDS011;65768;49.906;19.384;2023-05-10T18:19:17;6.00;;;3.60;;
76814;SDS011;65768;49.906;19.384;2023-05-10T18:22:06;7.10;;;3.10;;
76814;SDS011;65768;49.906;19.384;2023-05-10T18:24:38;5.70;;;2.90;;
76814;SDS011;65768;49.906;19.384;2023-05-10T18:27:23;5.50;;;3.30;;
76814;SDS011;65768;49.906;19.384;2023-05-10T18:30:01;6.30;;;2.60;;
76814;SDS011;65768;49.906;19.384;2023-05-10T18:32:39;7.90;;;2.60;;
76814;SDS011;65768;49.906;19.384;2023-05-10T18:35:36;6.20;;;3.20;;
76814;SDS011;65768;49.906;19.384;2023-05-10T18:38:09;4.80;;;2.60;;
76814;SDS011;65768;49.906;19.384;2023-05-10T18:41:01;5.90;;;3.20;;
76814;SDS011;65768;49.906;19.384;2023-05-10T18:43:38;7.00;;;4.10;;
76814;SDS011;65768;49.906;19.384;2023-05-10T18:49:14;5.70;;;3.30;;
76814;SDS011;65768;49.906;19.384;2023-05-10T18:51:56;6.00;;;3.30;;
76814;SDS011;65768;49.906;19.384;2023-05-10T18:54:38;9.20;;;4.00;;
76814;SDS011;65768;49.906;19.384;2023-05-10T18:57:35;9.70;;;3.70;;
76814;SDS011;65768;49.906;19.384;2023-05-10T19:06:04;6.20;;;3.00;;
76814;SDS011;65768;49.906;19.384;2023-05-10T19:09:07;6.00;;;3.70;;
76814;SDS011;65768;49.906;19.384;2023-05-10T19:11:59;10.30;;;3.70;;
76814;SDS011;65768;49.906;19.384;2023-05-10T19:15:01;9.40;;;4.70;;
76814;SDS011;65768;49.906;19.384;2023-05-10T19:17:47;10.30;;;4.40;;
76814;SDS011;65768;49.906;19.384;2023-05-10T19:20:46;11.80;;;6.60;;
76814;SDS011;65768;49.906;19.384;2023-05-10T19:23:36;9.20;;;5.70;;
76814;SDS011;65768;49.906;19.384;2023-05-10T19:26:23;8.00;;;4.20;;
76814;SDS011;65768;49.906;19.384;2023-05-10T19:32:32;9.00;;;5.50;;
76814;SDS011;65768;49.906;19.384;2023-05-10T19:38:22;25.30;;;16.10;;
76814;SDS011;65768;49.906;19.384;2023-05-10T19:41:02;12.30;;;9.30;;
76814;SDS011;65768;49.906;19.384;2023-05-10T19:43:47;6.60;;;3.60;;
76814;SDS011;65768;49.906;19.384;2023-05-10T19:46:29;6.00;;;3.20;;
76814;SDS011;65768;49.906;19.384;2023-05-10T19:49:39;6.60;;;3.60;;
76814;SDS011;65768;49.906;19.384;2023-05-10T19:52:15;8.70;;;4.20;;
76814;SDS011;65768;49.906;19.384;2023-05-10T19:58:11;7.40;;;3.20;;
76814;SDS011;65768;49.906;19.384;2023-05-10T20:00:56;5.90;;;3.30;;
76814;SDS011;65768;49.906;19.384;2023-05-10T20:03:42;6.80;;;3.40;;
76814;SDS011;65768;49.906;19.384;2023-05-10T20:06:34;6.70;;;3.40;;
76814;SDS011;65768;49.906;19.384;2023-05-10T20:09:43;4.60;;;2.70;;
76814;SDS011;65768;49.906;19.384;2023-05-10T20:12:36;8.10;;;3.20;;
76814;SDS011;65768;49.906;19.384;2023-05-10T20:15:36;6.30;;;3.00;;
76814;SDS011;65768;49.906;19.384;2023-05-10T20:18:27;6.60;;;3.10;;
76814;SDS011;65768;49.906;19.384;2023-05-10T20:21:04;10.30;;;3.50;;
76814;SDS011;65768;49.906;19.384;2023-05-10T20:23:40;3.80;;;2.60;;
76814;SDS011;65768;49.906;19.384;2023-05-10T20:26:46;5.70;;;3.30;;
76814;SDS011;65768;49.906;19.384;2023-05-10T20:29:31;5.10;;;2.80;;
76814;SDS011;65768;49.906;19.384;2023-05-10T20:35:21;5.20;;;2.80;;
76814;SDS011;65768;49.906;19.384;2023-05-10T20:38:04;6.90;;;3.50;;
76814;SDS011;65768;49.906;19.384;2023-05-10T20:40:56;8.10;;;3.80;;
76814;SDS011;65768;49.906;19.384;2023-05-10T20:47:10;8.30;;;3.90;;
76814;SDS011;65768;49.906;19.384;2023-05-10T20:53:33;6.10;;;3.60;;
76814;SDS011;65768;49.906;19.384;2023-05-10T20:56:45;7.30;;;3.80;;